Time;durP1;ratioP1;P1;durP2;ratioP2;P2;SDS_P1;SDS_P2;PMS_P1;PMS_P2;Temp;Humidity;BMP_temperature;BMP_pressure;BME280_temperature;BME280_humidity;BME280_pressure;Samples;Min_cycle;Max_cycle;Signal;HPM_P1;HPM_P2
2022/09/30 00:00:29;;;;;;;6.77;5.00;;;;;;;;;;5080239;28;20731;-75
2022/09/30 00:02:56;;;;;;;7.67;5.13;;;;;;;;;;5083832;28;20397;-75
2022/09/30 00:05:22;;;;;;;5.27;4.40;;;;;;;;;;5078041;28;20183;-75
2022/09/30 00:07:48;;;;;;;8.00;5.53;;;;;;;;;;5085461;28;20227;-76
2022/09/30 00:10:16;;;;;;;10.60;5.73;;;;;;;;;;5086724;28;20674;-76
2022/09/30 00:12:42;;;;;;;9.50;5.63;;;;;;;;;;5087097;28;20173;-76
2022/09/30 00:15:09;;;;;;;7.43;5.50;;;;;;;;;;5074540;28;20193;-76
2022/09/30 00:17:35;;;;;;;7.90;5.03;;;;;;;;;;5077261;28;20205;-76
2022/09/30 00:20:02;;;;;;;7.37;5.13;;;;;;;;;;5076603;28;20197;-76
2022/09/30 00:22:28;;;;;;;5.27;4.57;;;;;;;;;;5081848;28;20184;-76
2022/09/30 00:24:54;;;;;;;5.77;4.67;;;;;;;;;;5081022;28;20176;-76
2022/09/30 00:27:20;;;;;;;5.80;4.63;;;;;;;;;;5072321;28;20193;-76
2022/09/30 00:29:46;;;;;;;7.93;5.20;;;;;;;;;;5079842;28;20204;-76
2022/09/30 00:32:12;;;;;;;5.90;5.17;;;;;;;;;;5086253;28;20197;-76
2022/09/30 00:34:38;;;;;;;8.90;5.23;;;;;;;;;;5086636;28;20715;-76
2022/09/30 00:37:05;;;;;;;10.73;5.63;;;;;;;;;;5086492;28;20657;-76
2022/09/30 00:39:31;;;;;;;10.40;6.00;;;;;;;;;;5085566;28;20188;-76
2022/09/30 00:41:59;;;;;;;6.53;4.97;;;;;;;;;;5079783;28;20200;-76
2022/09/30 00:44:44;;;;;;;8.57;5.40;;;;;;;;;;5082634;28;20747;-76
2022/09/30 00:47:29;;;;;;;9.20;5.63;;;;;;;;;;5070296;28;20259;-76
2022/09/30 00:49:56;;;;;;;7.07;5.10;;;;;;;;;;5070214;28;20624;-76
2022/09/30 00:52:23;;;;;;;7.40;5.40;;;;;;;;;;5084256;28;20241;-76
2022/09/30 00:54:50;;;;;;;7.20;5.70;;;;;;;;;;5079414;28;20188;-76
2022/09/30 00:57:16;;;;;;;9.70;5.77;;;;;;;;;;5071625;28;20655;-76
2022/09/30 00:59:47;;;;;;;10.47;5.73;;;;;;;;;;5077079;28;20245;-76
2022/09/30 01:02:14;;;;;;;7.77;5.70;;;;;;;;;;5086970;28;20191;-76
2022/09/30 01:04:41;;;;;;;8.50;5.93;;;;;;;;;;5086467;28;20188;-75
2022/09/30 01:07:10;;;;;;;5.83;4.67;;;;;;;;;;5087980;28;20209;-76
2022/09/30 01:09:37;;;;;;;8.20;5.13;;;;;;;;;;5083655;28;20674;-76
2022/09/30 01:12:06;;;;;;;7.37;4.93;;;;;;;;;;5063227;28;20191;-76
2022/09/30 01:14:32;;;;;;;8.00;4.47;;;;;;;;;;5085808;28;20204;-76
2022/09/30 01:17:02;;;;;;;8.00;5.00;;;;;;;;;;5086288;28;20247;-76
2022/09/30 01:19:40;;;;;;;8.03;5.37;;;;;;;;;;5085689;28;21042;-76
2022/09/30 01:22:27;;;;;;;7.07;4.67;;;;;;;;;;5089579;28;20180;-76
2022/09/30 01:25:03;;;;;;;7.30;4.97;;;;;;;;;;5067504;28;20201;-75
2022/09/30 01:27:32;;;;;;;6.90;4.90;;;;;;;;;;5086663;28;20230;-76
2022/09/30 01:30:03;;;;;;;7.60;4.83;;;;;;;;;;5068108;28;20277;-76
2022/09/30 01:32:32;;;;;;;5.87;4.70;;;;;;;;;;5089181;28;20181;-76
2022/09/30 01:35:12;;;;;;;9.13;5.97;;;;;;;;;;5080149;28;20586;-76
2022/09/30 01:37:48;;;;;;;9.23;5.60;;;;;;;;;;5080838;28;20233;-75
2022/09/30 01:40:25;;;;;;;8.40;5.20;;;;;;;;;;5084583;28;20249;-75
2022/09/30 01:42:56;;;;;;;6.93;5.13;;;;;;;;;;5069971;28;20258;-76
2022/09/30 01:45:25;;;;;;;6.47;5.30;;;;;;;;;;5080616;28;20259;-75
2022/09/30 01:48:10;;;;;;;9.50;5.60;;;;;;;;;;5080564;28;20723;-76
2022/09/30 01:50:49;;;;;;;8.50;5.00;;;;;;;;;;5086325;28;20207;-76
2022/09/30 01:53:15;;;;;;;8.67;4.93;;;;;;;;;;5084262;28;20257;-76
2022/09/30 01:55:54;;;;;;;5.27;4.73;;;;;;;;;;5078499;28;20188;-76
2022/09/30 01:58:44;;;;;;;5.30;4.20;;;;;;;;;;5079577;28;20244;-76
2022/09/30 02:01:15;;;;;;;7.37;4.50;;;;;;;;;;5027912;28;20716;-76
2022/09/30 02:03:50;;;;;;;5.73;4.43;;;;;;;;;;5081100;28;20180;-76
2022/09/30 02:06:22;;;;;;;7.13;4.10;;;;;;;;;;5086174;28;20168;-76
2022/09/30 02:09:11;;;;;;;4.40;3.83;;;;;;;;;;5062199;28;20208;-76
2022/09/30 02:11:38;;;;;;;7.07;4.33;;;;;;;;;;5080879;28;20235;-76
2022/09/30 02:14:08;;;;;;;5.27;3.97;;;;;;;;;;5078268;28;20257;-76
2022/09/30 02:16:40;;;;;;;5.87;3.70;;;;;;;;;;5086140;28;20180;-76
2022/09/30 02:19:27;;;;;;;4.67;3.67;;;;;;;;;;5082280;28;20274;-76
2022/09/30 02:21:56;;;;;;;6.27;4.33;;;;;;;;;;5074831;28;20671;-76
2022/09/30 02:24:24;;;;;;;4.50;3.80;;;;;;;;;;5088267;28;20264;-76
2022/09/30 02:26:53;;;;;;;6.03;4.33;;;;;;;;;;5074954;28;20257;-76
2022/09/30 02:29:24;;;;;;;5.87;4.17;;;;;;;;;;5085273;28;20196;-76
2022/09/30 02:31:52;;;;;;;4.87;3.93;;;;;;;;;;5088471;28;20214;-76
2022/09/30 02:34:20;;;;;;;7.53;4.00;;;;;;;;;;5089091;28;20185;-76
2022/09/30 02:36:49;;;;;;;5.23;4.20;;;;;;;;;;5078859;28;20703;-76
2022/09/30 02:39:27;;;;;;;4.30;3.90;;;;;;;;;;5082517;28;20675;-76
2022/09/30 02:41:57;;;;;;;7.40;4.63;;;;;;;;;;5084788;28;20185;-76
2022/09/30 02:44:24;;;;;;;6.67;4.80;;;;;;;;;;5087085;28;20564;-76
2022/09/30 02:46:56;;;;;;;6.53;4.67;;;;;;;;;;5076192;28;20261;-76
2022/09/30 02:49:38;;;;;;;8.30;5.30;;;;;;;;;;5084544;28;20230;-76
2022/09/30 02:52:14;;;;;;;5.27;4.43;;;;;;;;;;5077645;28;20176;-76
2022/09/30 02:54:59;;;;;;;7.00;4.73;;;;;;;;;;5079821;28;20180;-75
2022/09/30 02:57:43;;;;;;;6.07;4.90;;;;;;;;;;5084083;28;20283;-76
2022/09/30 03:00:10;;;;;;;7.63;5.37;;;;;;;;;;5079627;28;20620;-76
2022/09/30 03:02:36;;;;;;;7.77;5.80;;;;;;;;;;5084178;28;20180;-76
2022/09/30 03:05:03;;;;;;;6.97;5.20;;;;;;;;;;5079757;28;20196;-75
2022/09/30 03:07:29;;;;;;;7.90;4.80;;;;;;;;;;5079342;28;20204;-75
2022/09/30 03:09:57;;;;;;;6.23;5.17;;;;;;;;;;5079172;28;20201;-75
2022/09/30 03:12:48;;;;;;;5.37;4.43;;;;;;;;;;5078057;28;20567;-75
2022/09/30 03:15:20;;;;;;;9.07;5.57;;;;;;;;;;5085408;28;20510;-76
2022/09/30 03:17:54;;;;;;;7.17;5.17;;;;;;;;;;5076986;28;20212;-76
2022/09/30 03:20:35;;;;;;;10.03;5.70;;;;;;;;;;5065224;28;20211;-76
2022/09/30 03:23:10;;;;;;;8.17;5.70;;;;;;;;;;5080141;28;20181;-75
2022/09/30 03:25:43;;;;;;;6.93;5.80;;;;;;;;;;5066166;28;20177;-76
2022/09/30 03:28:24;;;;;;;6.57;5.87;;;;;;;;;;5087094;28;20188;-76
2022/09/30 03:30:58;;;;;;;7.77;6.00;;;;;;;;;;5067261;28;20795;-76
2022/09/30 03:33:29;;;;;;;8.70;6.27;;;;;;;;;;5077613;28;20188;-76
2022/09/30 03:35:58;;;;;;;9.70;6.30;;;;;;;;;;5063560;28;20234;-76
2022/09/30 03:38:34;;;;;;;9.93;6.63;;;;;;;;;;5087008;28;20207;-75
2022/09/30 03:41:00;;;;;;;7.43;5.73;;;;;;;;;;5083950;28;20203;-76
2022/09/30 03:43:29;;;;;;;7.80;5.90;;;;;;;;;;5078625;28;20173;-76
2022/09/30 03:45:55;;;;;;;8.20;6.53;;;;;;;;;;5079504;28;20188;-76
2022/09/30 03:48:22;;;;;;;7.50;6.23;;;;;;;;;;5086136;28;20871;-76
2022/09/30 03:50:49;;;;;;;8.53;6.70;;;;;;;;;;5079510;28;20219;-76
2022/09/30 03:53:15;;;;;;;8.33;6.20;;;;;;;;;;5075368;28;20191;-75
2022/09/30 03:55:51;;;;;;;8.30;6.43;;;;;;;;;;5077630;28;20185;-76
2022/09/30 03:58:19;;;;;;;10.07;7.00;;;;;;;;;;5084265;28;20303;-76
2022/09/30 04:00:48;;;;;;;10.07;6.70;;;;;;;;;;5082450;28;20375;-76
2022/09/30 04:03:14;;;;;;;9.27;6.53;;;;;;;;;;5077295;28;20183;-76
2022/09/30 04:05:41;;;;;;;7.37;6.60;;;;;;;;;;5085557;28;20180;-76
2022/09/30 04:08:08;;;;;;;10.60;6.90;;;;;;;;;;5079291;28;20184;-76
2022/09/30 04:10:34;;;;;;;8.03;6.67;;;;;;;;;;5077603;28;20212;-76
2022/09/30 04:13:00;;;;;;;9.17;7.10;;;;;;;;;;5079048;28;20196;-76
2022/09/30 04:15:26;;;;;;;9.10;8.00;;;;;;;;;;5075897;28;20209;-76
2022/09/30 04:17:52;;;;;;;10.37;7.73;;;;;;;;;;5078512;28;20315;-75
2022/09/30 04:20:18;;;;;;;11.67;7.53;;;;;;;;;;5085756;28;20247;-75
2022/09/30 04:22:45;;;;;;;11.40;7.30;;;;;;;;;;5081316;28;20184;-76
2022/09/30 04:25:11;;;;;;;10.77;7.70;;;;;;;;;;5080266;28;20664;-76
2022/09/30 04:27:37;;;;;;;10.97;7.97;;;;;;;;;;5077914;28;20189;-75
2022/09/30 04:30:04;;;;;;;8.90;7.47;;;;;;;;;;5081778;28;20201;-76
2022/09/30 04:32:30;;;;;;;9.77;7.50;;;;;;;;;;5081911;28;20707;-76
2022/09/30 04:34:56;;;;;;;9.73;8.07;;;;;;;;;;5086744;28;20177;-76
2022/09/30 04:37:23;;;;;;;8.37;7.30;;;;;;;;;;5069509;28;20293;-76
2022/09/30 04:39:49;;;;;;;8.73;6.57;;;;;;;;;;5075896;28;20711;-76
2022/09/30 04:42:17;;;;;;;10.60;7.30;;;;;;;;;;5076918;28;20176;-76
2022/09/30 04:44:43;;;;;;;9.40;7.33;;;;;;;;;;5084876;28;20183;-76
2022/09/30 04:47:09;;;;;;;9.57;7.60;;;;;;;;;;5076131;28;20777;-76
2022/09/30 04:49:35;;;;;;;10.87;7.50;;;;;;;;;;5075334;28;20315;-75
2022/09/30 04:52:01;;;;;;;12.03;7.43;;;;;;;;;;5080332;28;20185;-76
2022/09/30 04:54:27;;;;;;;11.37;7.23;;;;;;;;;;5075455;28;20181;-76
2022/09/30 04:56:54;;;;;;;11.83;7.70;;;;;;;;;;5077152;28;20193;-76
2022/09/30 04:59:20;;;;;;;9.52;7.78;;;;;;;;;;5073246;28;20421;-75
2022/09/30 05:01:46;;;;;;;9.83;7.70;;;;;;;;;;5083554;28;20277;-76
2022/09/30 05:04:12;;;;;;;10.87;6.93;;;;;;;;;;5075800;28;20204;-76
2022/09/30 05:06:41;;;;;;;9.57;7.57;;;;;;;;;;5073689;28;20212;-76
2022/09/30 05:09:07;;;;;;;11.60;6.97;;;;;;;;;;5074092;28;20186;-76
2022/09/30 05:11:34;;;;;;;9.73;6.83;;;;;;;;;;5081308;28;20215;-76
2022/09/30 05:14:00;;;;;;;7.87;6.40;;;;;;;;;;5079037;28;20224;-76
2022/09/30 05:16:26;;;;;;;9.07;7.07;;;;;;;;;;5079193;28;20184;-76
2022/09/30 05:18:53;;;;;;;9.60;7.17;;;;;;;;;;5067381;28;20215;-75
2022/09/30 05:21:19;;;;;;;9.80;7.13;;;;;;;;;;5083638;28;20200;-76
2022/09/30 05:23:46;;;;;;;13.10;8.37;;;;;;;;;;5087043;28;20179;-75
2022/09/30 05:26:12;;;;;;;11.93;7.57;;;;;;;;;;5071415;28;20551;-74
2022/09/30 05:28:39;;;;;;;10.57;7.80;;;;;;;;;;5081414;28;20692;-76
2022/09/30 05:31:05;;;;;;;9.53;7.40;;;;;;;;;;5080490;28;20212;-75
2022/09/30 05:33:31;;;;;;;11.37;8.13;;;;;;;;;;5084900;28;20611;-75
2022/09/30 05:36:05;;;;;;;10.33;8.30;;;;;;;;;;5088549;28;20234;-76
2022/09/30 05:38:31;;;;;;;10.40;8.03;;;;;;;;;;5079727;28;20205;-76
2022/09/30 05:40:57;;;;;;;12.10;8.23;;;;;;;;;;5087815;28;20261;-76
2022/09/30 05:43:24;;;;;;;12.33;8.30;;;;;;;;;;5078101;28;20635;-76
2022/09/30 05:45:56;;;;;;;14.47;8.90;;;;;;;;;;5082448;28;20562;-78
2022/09/30 05:48:24;;;;;;;10.53;7.73;;;;;;;;;;5069420;28;20956;-76
2022/09/30 05:50:53;;;;;;;13.97;9.33;;;;;;;;;;5080298;28;20226;-76
2022/09/30 05:53:20;;;;;;;16.20;8.47;;;;;;;;;;5084319;28;20184;-77
2022/09/30 05:55:46;;;;;;;13.67;9.03;;;;;;;;;;5076140;28;20204;-76
2022/09/30 05:58:13;;;;;;;10.93;8.90;;;;;;;;;;5085611;28;20623;-76
2022/09/30 06:00:41;;;;;;;11.27;8.33;;;;;;;;;;5080296;28;20209;-77
2022/09/30 06:03:07;;;;;;;13.40;8.23;;;;;;;;;;5079920;28;20184;-76
2022/09/30 06:05:33;;;;;;;15.27;8.93;;;;;;;;;;5091450;28;20219;-75
2022/09/30 06:07:59;;;;;;;15.87;10.23;;;;;;;;;;5086615;28;20188;-76
2022/09/30 06:10:26;;;;;;;11.83;9.00;;;;;;;;;;5083564;28;20311;-76
2022/09/30 06:12:52;;;;;;;11.63;8.53;;;;;;;;;;5082876;28;20264;-79
2022/09/30 06:15:18;;;;;;;14.63;10.17;;;;;;;;;;5088539;28;20181;-78
2022/09/30 06:17:45;;;;;;;15.73;9.73;;;;;;;;;;5045171;28;21239;-77
2022/09/30 06:20:12;;;;;;;14.57;10.07;;;;;;;;;;5087139;28;20201;-74
2022/09/30 06:22:38;;;;;;;18.07;9.53;;;;;;;;;;5079243;28;20176;-77
2022/09/30 06:25:05;;;;;;;16.60;9.77;;;;;;;;;;5087955;28;20184;-77
2022/09/30 06:27:37;;;;;;;15.23;10.07;;;;;;;;;;5078211;28;20263;-76
2022/09/30 06:30:04;;;;;;;19.60;10.80;;;;;;;;;;5089036;28;20212;-76
2022/09/30 06:32:30;;;;;;;12.37;9.50;;;;;;;;;;5053305;28;20275;-77
2022/09/30 06:34:56;;;;;;;13.87;10.77;;;;;;;;;;5071448;28;20188;-77
2022/09/30 06:37:23;;;;;;;14.63;10.13;;;;;;;;;;5088407;28;20246;-77
2022/09/30 06:39:49;;;;;;;14.03;11.17;;;;;;;;;;5088973;28;20766;-77
2022/09/30 06:42:16;;;;;;;23.27;12.07;;;;;;;;;;5071725;28;20173;-77
2022/09/30 06:44:43;;;;;;;19.77;10.60;;;;;;;;;;5033765;28;20614;-76
2022/09/30 06:47:10;;;;;;;17.37;11.10;;;;;;;;;;5087071;28;20742;-76
2022/09/30 06:49:36;;;;;;;15.37;10.80;;;;;;;;;;5079260;28;20627;-76
2022/09/30 06:52:02;;;;;;;16.63;11.00;;;;;;;;;;5078965;28;20180;-77
2022/09/30 06:54:28;;;;;;;15.07;10.80;;;;;;;;;;5088088;28;20185;-77
2022/09/30 06:56:56;;;;;;;18.40;11.73;;;;;;;;;;5086981;28;20204;-77
2022/09/30 06:59:23;;;;;;;18.87;11.00;;;;;;;;;;5082897;28;20185;-77
2022/09/30 07:01:49;;;;;;;15.07;11.10;;;;;;;;;;5070541;28;20257;-76
2022/09/30 07:04:15;;;;;;;13.43;9.83;;;;;;;;;;5087690;28;20184;-76
2022/09/30 07:06:42;;;;;;;19.23;10.27;;;;;;;;;;5083443;28;20184;-77
2022/09/30 07:09:09;;;;;;;15.33;11.27;;;;;;;;;;5078758;28;20844;-77
2022/09/30 07:11:38;;;;;;;17.43;11.77;;;;;;;;;;5070783;28;20208;-77
2022/09/30 07:14:04;;;;;;;16.83;10.80;;;;;;;;;;5037224;28;20188;-77
2022/09/30 07:16:32;;;;;;;13.43;10.93;;;;;;;;;;5074508;28;20271;-76
2022/09/30 07:18:59;;;;;;;14.17;11.57;;;;;;;;;;5078283;28;20872;-77
2022/09/30 07:21:26;;;;;;;15.43;11.90;;;;;;;;;;5075876;28;20201;-76
2022/09/30 07:23:53;;;;;;;21.60;12.57;;;;;;;;;;5069245;28;20318;-76
2022/09/30 07:26:21;;;;;;;14.40;10.97;;;;;;;;;;5087192;28;20242;-76
2022/09/30 07:28:48;;;;;;;16.77;10.87;;;;;;;;;;5075231;28;20182;-76
2022/09/30 07:31:16;;;;;;;22.60;12.27;;;;;;;;;;5074762;28;20581;-76
2022/09/30 07:33:42;;;;;;;16.83;12.10;;;;;;;;;;5048241;28;20186;-76
2022/09/30 07:36:09;;;;;;;16.27;12.17;;;;;;;;;;5085886;28;20211;-76
2022/09/30 07:38:37;;;;;;;15.53;11.70;;;;;;;;;;5053750;28;20204;-76
2022/09/30 07:41:06;;;;;;;12.10;9.80;;;;;;;;;;5083531;28;20227;-76
2022/09/30 07:43:39;;;;;;;15.00;10.83;;;;;;;;;;5067519;28;20189;-76
2022/09/30 07:46:05;;;;;;;15.23;10.97;;;;;;;;;;5072132;28;20189;-76
2022/09/30 07:48:46;;;;;;;15.57;10.87;;;;;;;;;;5086646;28;20180;-76
2022/09/30 07:51:13;;;;;;;20.37;11.60;;;;;;;;;;5065055;28;20287;-76
2022/09/30 07:53:40;;;;;;;12.73;10.23;;;;;;;;;;5079435;28;20346;-76
2022/09/30 07:56:07;;;;;;;14.87;10.80;;;;;;;;;;5083675;28;20208;-76
2022/09/30 07:58:33;;;;;;;15.07;9.97;;;;;;;;;;5082202;28;20235;-76
2022/09/30 08:00:59;;;;;;;13.03;10.63;;;;;;;;;;5081128;28;20278;-76
2022/09/30 08:03:25;;;;;;;13.63;9.53;;;;;;;;;;5076347;28;20180;-76
2022/09/30 08:05:51;;;;;;;13.57;10.70;;;;;;;;;;5087547;28;20208;-76
2022/09/30 08:08:18;;;;;;;13.50;10.00;;;;;;;;;;5085381;28;20311;-76
2022/09/30 08:10:44;;;;;;;16.67;10.03;;;;;;;;;;5071942;28;20215;-76
2022/09/30 08:13:15;;;;;;;17.07;11.50;;;;;;;;;;5052438;28;20209;-76
2022/09/30 08:15:42;;;;;;;15.53;11.33;;;;;;;;;;5087034;28;20184;-76
2022/09/30 08:18:08;;;;;;;13.80;9.87;;;;;;;;;;5079059;28;20616;-76
2022/09/30 08:20:34;;;;;;;13.63;11.03;;;;;;;;;;5085317;28;20762;-76
2022/09/30 08:23:00;;;;;;;14.97;10.70;;;;;;;;;;5080117;28;20176;-76
2022/09/30 08:25:26;;;;;;;13.10;9.87;;;;;;;;;;5082817;28;20225;-76
2022/09/30 08:27:52;;;;;;;13.30;11.03;;;;;;;;;;5064979;28;20558;-76
2022/09/30 08:30:18;;;;;;;13.03;11.23;;;;;;;;;;5060338;28;20216;-76
2022/09/30 08:32:45;;;;;;;17.80;13.53;;;;;;;;;;5080788;28;20211;-77
2022/09/30 08:35:11;;;;;;;17.73;13.83;;;;;;;;;;5086688;28;20241;-76
2022/09/30 08:37:37;;;;;;;14.83;12.10;;;;;;;;;;5086884;28;20637;-76
2022/09/30 08:40:03;;;;;;;16.17;11.73;;;;;;;;;;5086274;28;20959;-76
2022/09/30 08:42:50;;;;;;;14.47;11.97;;;;;;;;;;5085313;28;20206;-76
2022/09/30 08:45:21;;;;;;;16.97;12.20;;;;;;;;;;5082496;28;20177;-76
2022/09/30 08:47:53;;;;;;;15.20;12.83;;;;;;;;;;5079793;28;20179;-76
2022/09/30 08:50:28;;;;;;;16.87;14.03;;;;;;;;;;5053287;28;20204;-77
2022/09/30 08:52:57;;;;;;;16.20;13.10;;;;;;;;;;5086313;28;20593;-76
2022/09/30 08:55:23;;;;;;;15.90;12.80;;;;;;;;;;5084186;28;20599;-76
2022/09/30 08:57:49;;;;;;;15.17;12.53;;;;;;;;;;5077919;28;20215;-76
2022/09/30 09:00:17;;;;;;;15.90;12.67;;;;;;;;;;5082559;28;20215;-76
2022/09/30 09:02:53;;;;;;;13.77;12.20;;;;;;;;;;5085609;28;20172;-76
2022/09/30 09:05:28;;;;;;;14.37;12.57;;;;;;;;;;5075010;28;20168;-76
2022/09/30 09:07:59;;;;;;;14.80;13.07;;;;;;;;;;5073228;28;20200;-76
2022/09/30 09:10:26;;;;;;;15.67;12.63;;;;;;;;;;5083869;28;20208;-76
2022/09/30 09:13:06;;;;;;;14.97;12.07;;;;;;;;;;5091045;28;20480;-76
2022/09/30 09:15:53;;;;;;;17.13;13.57;;;;;;;;;;5072459;28;20193;-76
2022/09/30 09:18:22;;;;;;;15.57;13.23;;;;;;;;;;5071568;28;20275;-76
2022/09/30 09:20:56;;;;;;;15.13;12.60;;;;;;;;;;5089438;28;20233;-76
2022/09/30 09:23:23;;;;;;;17.40;14.87;;;;;;;;;;5080103;28;20184;-75
2022/09/30 09:25:54;;;;;;;16.13;14.40;;;;;;;;;;5075441;28;20204;-75
2022/09/30 09:28:24;;;;;;;17.40;13.70;;;;;;;;;;5079528;28;20211;-75
2022/09/30 09:30:54;;;;;;;17.93;14.10;;;;;;;;;;5082959;28;20288;-77
2022/09/30 09:33:22;;;;;;;15.97;13.80;;;;;;;;;;5075743;28;20218;-77
2022/09/30 09:35:51;;;;;;;14.80;13.20;;;;;;;;;;5086521;28;20656;-77
2022/09/30 09:38:24;;;;;;;15.30;13.70;;;;;;;;;;5051635;28;20214;-77
2022/09/30 09:40:59;;;;;;;13.77;12.37;;;;;;;;;;5086298;28;20200;-77
2022/09/30 09:43:44;;;;;;;15.27;13.67;;;;;;;;;;5080339;28;20177;-77
2022/09/30 09:46:21;;;;;;;18.37;14.73;;;;;;;;;;5087382;28;20184;-77
2022/09/30 09:48:49;;;;;;;18.73;15.80;;;;;;;;;;5059300;28;20195;-77
2022/09/30 09:51:22;;;;;;;16.70;14.03;;;;;;;;;;5087601;28;20283;-75
2022/09/30 09:53:52;;;;;;;16.23;14.07;;;;;;;;;;5083227;28;20184;-74
2022/09/30 09:56:20;;;;;;;15.47;12.83;;;;;;;;;;5089841;28;20192;-74
2022/09/30 09:59:05;;;;;;;18.17;14.40;;;;;;;;;;5080342;28;20208;-75
2022/09/30 10:01:32;;;;;;;19.17;14.90;;;;;;;;;;5085784;28;20277;-74
2022/09/30 10:04:09;;;;;;;14.80;13.30;;;;;;;;;;5063227;28;20850;-75
2022/09/30 10:06:56;;;;;;;15.83;13.93;;;;;;;;;;5083065;28;20540;-75
2022/09/30 10:09:26;;;;;;;14.37;12.10;;;;;;;;;;5088020;28;20196;-75
2022/09/30 10:12:12;;;;;;;15.37;13.50;;;;;;;;;;5089227;28;20184;-74
2022/09/30 10:14:45;;;;;;;14.40;12.90;;;;;;;;;;5062546;28;20204;-75
2022/09/30 10:17:18;;;;;;;14.57;12.97;;;;;;;;;;5070729;28;20213;-71
2022/09/30 10:19:50;;;;;;;15.13;13.13;;;;;;;;;;5084638;28;20185;-75
2022/09/30 10:22:16;;;;;;;15.17;13.27;;;;;;;;;;5086435;28;20268;-74
2022/09/30 10:24:42;;;;;;;14.60;12.50;;;;;;;;;;5085841;28;20177;-74
2022/09/30 10:27:31;;;;;;;13.37;10.67;;;;;;;;;;5077217;28;20830;-74
2022/09/30 10:29:57;;;;;;;11.97;10.10;;;;;;;;;;5085223;28;20196;-75
2022/09/30 10:32:25;;;;;;;11.90;9.67;;;;;;;;;;5088644;28;20181;-75
2022/09/30 10:34:56;;;;;;;12.57;9.50;;;;;;;;;;5065128;28;20211;-75
2022/09/30 10:37:23;;;;;;;12.00;10.70;;;;;;;;;;5054765;28;20179;-75
2022/09/30 10:39:57;;;;;;;12.20;10.10;;;;;;;;;;5087052;28;20208;-75
2022/09/30 10:42:25;;;;;;;12.33;9.80;;;;;;;;;;5053502;28;20393;-74
2022/09/30 10:44:54;;;;;;;14.10;9.53;;;;;;;;;;5081703;28;20241;-75
2022/09/30 10:47:21;;;;;;;12.20;9.97;;;;;;;;;;5080283;28;20246;-75
2022/09/30 10:49:54;;;;;;;10.10;9.07;;;;;;;;;;5064608;28;20224;-75
2022/09/30 10:52:26;;;;;;;10.47;9.37;;;;;;;;;;5074837;28;20180;-75
2022/09/30 10:54:53;;;;;;;10.93;9.30;;;;;;;;;;5076448;28;20625;-75
2022/09/30 10:57:22;;;;;;;13.67;8.77;;;;;;;;;;5084152;28;20655;-75
2022/09/30 10:59:49;;;;;;;10.37;8.50;;;;;;;;;;5052044;28;20604;-75
2022/09/30 11:02:15;;;;;;;9.83;8.37;;;;;;;;;;5077032;28;20177;-75
2022/09/30 11:04:47;;;;;;;12.40;8.40;;;;;;;;;;5078831;28;20181;-75
2022/09/30 11:07:31;;;;;;;9.33;7.77;;;;;;;;;;5086850;28;20709;-75
2022/09/30 11:10:01;;;;;;;11.10;8.10;;;;;;;;;;5078936;28;20208;-75
2022/09/30 11:12:37;;;;;;;9.90;7.50;;;;;;;;;;5085486;28;20648;-76
2022/09/30 11:15:03;;;;;;;8.70;7.80;;;;;;;;;;5081341;28;20192;-75
2022/09/30 11:17:33;;;;;;;9.53;7.37;;;;;;;;;;5085502;28;20208;-75
2022/09/30 11:20:14;;;;;;;11.27;8.20;;;;;;;;;;5062530;28;20685;-75
2022/09/30 11:22:59;;;;;;;8.60;7.17;;;;;;;;;;5082813;28;20203;-75
2022/09/30 11:25:30;;;;;;;8.43;7.40;;;;;;;;;;5073319;28;20185;-75
2022/09/30 11:27:56;;;;;;;7.10;6.40;;;;;;;;;;5078178;28;20275;-75
2022/09/30 11:30:43;;;;;;;8.73;6.33;;;;;;;;;;5080668;28;20219;-75
2022/09/30 11:33:10;;;;;;;8.83;6.90;;;;;;;;;;5084243;28;20191;-75
2022/09/30 11:35:46;;;;;;;7.17;6.37;;;;;;;;;;5084237;28;20204;-75
2022/09/30 11:38:35;;;;;;;7.20;6.50;;;;;;;;;;5068244;28;20570;-75
2022/09/30 11:41:09;;;;;;;8.83;6.80;;;;;;;;;;5087299;28;20198;-75
2022/09/30 11:43:49;;;;;;;8.63;5.97;;;;;;;;;;5069757;28;20271;-75
2022/09/30 11:46:30;;;;;;;7.53;6.73;;;;;;;;;;5079229;28;20195;-75
2022/09/30 11:48:59;;;;;;;9.63;6.17;;;;;;;;;;5078625;28;20255;-75
2022/09/30 11:51:32;;;;;;;9.80;6.37;;;;;;;;;;5086112;28;20219;-75
2022/09/30 11:54:03;;;;;;;9.33;5.73;;;;;;;;;;5074010;28;20214;-73
2022/09/30 11:56:35;;;;;;;6.20;4.37;;;;;;;;;;5077066;28;20257;-84
2022/09/30 11:59:03;;;;;;;6.70;3.93;;;;;;;;;;5086700;28;20204;-75
2022/09/30 12:01:31;;;;;;;5.00;4.17;;;;;;;;;;5081029;28;20578;-75
2022/09/30 12:04:09;;;;;;;5.73;4.37;;;;;;;;;;5073283;28;20687;-78
2022/09/30 12:06:37;;;;;;;6.77;4.47;;;;;;;;;;5076726;28;20180;-72
2022/09/30 12:09:09;;;;;;;6.00;3.80;;;;;;;;;;5085232;28;20237;-74
2022/09/30 12:11:44;;;;;;;5.60;4.50;;;;;;;;;;5083760;28;20208;-75
2022/09/30 12:14:15;;;;;;;4.83;4.23;;;;;;;;;;5069320;28;20215;-74
2022/09/30 12:16:42;;;;;;;6.03;4.10;;;;;;;;;;5059399;28;20170;-75
2022/09/30 12:19:14;;;;;;;4.90;4.10;;;;;;;;;;5085841;28;20208;-75
2022/09/30 12:21:46;;;;;;;5.37;3.60;;;;;;;;;;5077059;28;20853;-75
2022/09/30 12:24:28;;;;;;;3.93;3.40;;;;;;;;;;5061600;28;20230;-75
2022/09/30 12:26:54;;;;;;;5.90;4.77;;;;;;;;;;5082894;28;20664;-76
2022/09/30 12:32:35;;;;;;;8.77;5.10;;;;;;;;;;5078129;28;20195;-75
2022/09/30 12:35:08;;;;;;;6.50;4.57;;;;;;;;;;5081316;28;20188;-75
2022/09/30 12:37:49;;;;;;;9.50;5.20;;;;;;;;;;5079277;28;20208;-77
2022/09/30 12:40:23;;;;;;;5.50;4.67;;;;;;;;;;5083016;28;20215;-79
2022/09/30 12:43:24;;;;;;;7.40;5.03;;;;;;;;;;5085089;28;20196;-74
2022/09/30 12:46:09;;;;;;;6.70;5.17;;;;;;;;;;5004731;28;20209;-75
2022/09/30 12:48:41;;;;;;;7.13;5.03;;;;;;;;;;5080796;28;20577;-75
2022/09/30 12:51:07;;;;;;;6.20;4.93;;;;;;;;;;5081480;28;20291;-75
2022/09/30 12:53:35;;;;;;;5.20;4.57;;;;;;;;;;5084806;28;20191;-75
2022/09/30 12:56:09;;;;;;;5.60;3.70;;;;;;;;;;5085924;28;20172;-75
2022/09/30 12:58:47;;;;;;;7.27;4.40;;;;;;;;;;5083993;28;20215;-75
2022/09/30 13:01:22;;;;;;;6.57;5.03;;;;;;;;;;5085714;28;20254;-75
2022/09/30 13:04:08;;;;;;;5.47;4.93;;;;;;;;;;5079483;28;20629;-74
2022/09/30 13:06:46;;;;;;;5.50;4.20;;;;;;;;;;5083588;28;20247;-75
2022/09/30 13:09:15;;;;;;;4.27;3.87;;;;;;;;;;5077925;28;20600;-75
2022/09/30 13:11:43;;;;;;;6.20;4.40;;;;;;;;;;5078710;28;20213;-74
2022/09/30 13:14:24;;;;;;;4.80;4.20;;;;;;;;;;5073957;28;20265;-74
2022/09/30 13:17:01;;;;;;;6.00;5.00;;;;;;;;;;5079332;28;20189;-74
2022/09/30 13:19:32;;;;;;;7.17;5.77;;;;;;;;;;5081764;28;20668;-74
2022/09/30 13:22:17;;;;;;;6.70;5.60;;;;;;;;;;5079831;28;20185;-74
2022/09/30 13:24:59;;;;;;;8.17;4.70;;;;;;;;;;5064106;28;20212;-74
2022/09/30 13:27:39;;;;;;;7.47;5.07;;;;;;;;;;5080767;28;20638;-74
2022/09/30 13:30:14;;;;;;;6.47;5.73;;;;;;;;;;5085558;28;20236;-74
2022/09/30 13:32:42;;;;;;;9.00;5.90;;;;;;;;;;5085896;28;20181;-74
2022/09/30 13:35:28;;;;;;;5.57;5.03;;;;;;;;;;5083987;28;20542;-74
2022/09/30 13:38:12;;;;;;;8.50;5.37;;;;;;;;;;5076298;28;20363;-77
2022/09/30 13:40:53;;;;;;;7.10;5.53;;;;;;;;;;5057123;28;20314;-76
2022/09/30 13:43:33;;;;;;;7.17;4.80;;;;;;;;;;5080776;28;20181;-79
2022/09/30 13:46:04;;;;;;;7.17;4.83;;;;;;;;;;5077910;28;20439;-75
2022/09/30 13:48:33;;;;;;;5.03;4.00;;;;;;;;;;5076774;28;20246;-75
2022/09/30 13:50:59;;;;;;;5.10;4.43;;;;;;;;;;5079634;28;20206;-75
2022/09/30 13:53:31;;;;;;;9.27;5.63;;;;;;;;;;5061729;28;20180;-75
2022/09/30 13:55:59;;;;;;;6.80;6.00;;;;;;;;;;5085859;28;20180;-74
2022/09/30 13:58:44;;;;;;;6.73;5.57;;;;;;;;;;5088576;28;20200;-75
2022/09/30 14:01:17;;;;;;;7.00;5.50;;;;;;;;;;5085429;28;20204;-74
2022/09/30 14:04:02;;;;;;;7.80;5.23;;;;;;;;;;5082390;28;20183;-74
2022/09/30 14:06:35;;;;;;;6.90;5.33;;;;;;;;;;5085642;28;20693;-74
2022/09/30 14:09:07;;;;;;;5.27;4.60;;;;;;;;;;5086060;28;20188;-74
2022/09/30 14:11:42;;;;;;;6.13;5.10;;;;;;;;;;5078421;28;20218;-74
2022/09/30 14:14:36;;;;;;;7.33;4.37;;;;;;;;;;5068828;28;20637;-74
2022/09/30 14:17:03;;;;;;;5.20;4.00;;;;;;;;;;5077979;28;20177;-74
2022/09/30 14:19:38;;;;;;;7.00;4.13;;;;;;;;;;5074674;28;20231;-74
2022/09/30 14:22:07;;;;;;;7.30;5.17;;;;;;;;;;5079767;28;20187;-77
2022/09/30 14:24:34;;;;;;;6.13;4.37;;;;;;;;;;5062619;28;20244;-74
2022/09/30 14:27:16;;;;;;;5.57;4.20;;;;;;;;;;5084854;28;20177;-74
2022/09/30 14:29:52;;;;;;;9.80;4.50;;;;;;;;;;5080412;28;20184;-74
2022/09/30 14:32:29;;;;;;;6.00;4.43;;;;;;;;;;5076586;28;20281;-74
2022/09/30 14:34:56;;;;;;;4.93;4.00;;;;;;;;;;5071523;28;20195;-75
2022/09/30 14:37:30;;;;;;;7.23;4.10;;;;;;;;;;5082594;28;20688;-75
2022/09/30 14:39:56;;;;;;;5.60;3.70;;;;;;;;;;5076834;28;20205;-79
2022/09/30 14:42:37;;;;;;;7.77;4.47;;;;;;;;;;5074626;28;20262;-77
2022/09/30 14:45:04;;;;;;;5.27;4.50;;;;;;;;;;5079792;28;20465;-76
2022/09/30 14:47:32;;;;;;;5.20;4.23;;;;;;;;;;5079165;28;20173;-75
2022/09/30 14:49:59;;;;;;;5.77;4.13;;;;;;;;;;5054077;28;20207;-76
2022/09/30 14:52:36;;;;;;;4.00;3.60;;;;;;;;;;5082184;28;20545;-75
2022/09/30 14:55:03;;;;;;;4.90;3.70;;;;;;;;;;5078190;28;20180;-76
2022/09/30 14:57:33;;;;;;;4.40;4.00;;;;;;;;;;5081181;28;20192;-76